sensor_id;sensor_type;location;lat;lon;timestamp;P1;durP1;ratioP1;P2;durP2;ratioP2
12218;SDS011;6172;42.646;23.344;2023-09-12T00:02:20;3.33;;;1.70;;
12218;SDS011;6172;42.646;23.344;2023-09-12T00:04:47;2.37;;;1.87;;
12218;SDS011;6172;42.646;23.344;2023-09-12T00:07:17;4.43;;;2.80;;
12218;SDS011;6172;42.646;23.344;2023-09-12T00:09:44;5.97;;;2.03;;
12218;SDS011;6172;42.646;23.344;2023-09-12T00:12:13;5.27;;;2.20;;
12218;SDS011;6172;42.646;23.344;2023-09-12T00:14:41;3.23;;;2.20;;
12218;SDS011;6172;42.646;23.344;2023-09-12T00:17:08;2.80;;;2.10;;
12218;SDS011;6172;42.646;23.344;2023-09-12T00:19:35;3.87;;;2.20;;
12218;SDS011;6172;42.646;23.344;2023-09-12T00:22:02;3.33;;;2.13;;
12218;SDS011;6172;42.646;23.344;2023-09-12T00:24:31;2.30;;;2.00;;
12218;SDS011;6172;42.646;23.344;2023-09-12T00:26:58;3.00;;;1.73;;
12218;SDS011;6172;42.646;23.344;2023-09-12T00:29:24;2.63;;;2.10;;
12218;SDS011;6172;42.646;23.344;2023-09-12T00:31:51;3.57;;;2.13;;
12218;SDS011;6172;42.646;23.344;2023-09-12T00:34:18;2.00;;;1.67;;
12218;SDS011;6172;42.646;23.344;2023-09-12T00:36:45;3.23;;;2.00;;
12218;SDS011;6172;42.646;23.344;2023-09-12T00:39:12;3.23;;;1.83;;
12218;SDS011;6172;42.646;23.344;2023-09-12T00:41:40;5.20;;;1.90;;
12218;SDS011;6172;42.646;23.344;2023-09-12T00:44:07;2.07;;;1.53;;
12218;SDS011;6172;42.646;23.344;2023-09-12T00:46:33;3.77;;;2.33;;
12218;SDS011;6172;42.646;23.344;2023-09-12T00:49:02;4.20;;;1.63;;
12218;SDS011;6172;42.646;23.344;2023-09-12T00:51:32;2.47;;;1.77;;
12218;SDS011;6172;42.646;23.344;2023-09-12T00:54:00;3.30;;;1.80;;
12218;SDS011;6172;42.646;23.344;2023-09-12T00:56:27;3.00;;;2.07;;
12218;SDS011;6172;42.646;23.344;2023-09-12T00:58:56;2.83;;;1.53;;
12218;SDS011;6172;42.646;23.344;2023-09-12T01:01:23;3.03;;;1.90;;
12218;SDS011;6172;42.646;23.344;2023-09-12T01:03:50;2.97;;;1.43;;
12218;SDS011;6172;42.646;23.344;2023-09-12T01:06:17;4.20;;;2.03;;
12218;SDS011;6172;42.646;23.344;2023-09-12T01:08:47;5.73;;;1.80;;
12218;SDS011;6172;42.646;23.344;2023-09-12T01:11:13;3.27;;;2.07;;
12218;SDS011;6172;42.646;23.344;2023-09-12T01:13:40;2.53;;;1.57;;
12218;SDS011;6172;42.646;23.344;2023-09-12T01:16:09;5.27;;;2.30;;
12218;SDS011;6172;42.646;23.344;2023-09-12T01:18:36;4.13;;;2.00;;
12218;SDS011;6172;42.646;23.344;2023-09-12T01:21:13;3.07;;;1.60;;
12218;SDS011;6172;42.646;23.344;2023-09-12T01:24:10;6.50;;;1.83;;
12218;SDS011;6172;42.646;23.344;2023-09-12T01:26:59;4.67;;;1.60;;
12218;SDS011;6172;42.646;23.344;2023-09-12T01:29:51;5.97;;;2.30;;
12218;SDS011;6172;42.646;23.344;2023-09-12T01:32:25;2.80;;;2.20;;
12218;SDS011;6172;42.646;23.344;2023-09-12T01:34:53;3.67;;;2.10;;
12218;SDS011;6172;42.646;23.344;2023-09-12T01:37:19;5.30;;;2.43;;
12218;SDS011;6172;42.646;23.344;2023-09-12T01:39:46;2.87;;;1.90;;
12218;SDS011;6172;42.646;23.344;2023-09-12T01:42:15;5.50;;;2.13;;
12218;SDS011;6172;42.646;23.344;2023-09-12T01:44:46;4.00;;;2.37;;
12218;SDS011;6172;42.646;23.344;2023-09-12T01:47:16;6.20;;;2.47;;
12218;SDS011;6172;42.646;23.344;2023-09-12T01:49:45;4.83;;;2.57;;
12218;SDS011;6172;42.646;23.344;2023-09-12T01:52:14;6.43;;;2.60;;
12218;SDS011;6172;42.646;23.344;2023-09-12T01:54:41;5.30;;;2.60;;
12218;SDS011;6172;42.646;23.344;2023-09-12T01:57:10;4.60;;;2.23;;
12218;SDS011;6172;42.646;23.344;2023-09-12T01:59:37;3.43;;;2.10;;
12218;SDS011;6172;42.646;23.344;2023-09-12T02:02:05;4.03;;;2.30;;
12218;SDS011;6172;42.646;23.344;2023-09-12T02:04:32;4.77;;;2.20;;
12218;SDS011;6172;42.646;23.344;2023-09-12T02:06:59;5.17;;;2.30;;
12218;SDS011;6172;42.646;23.344;2023-09-12T02:09:27;5.63;;;2.53;;
12218;SDS011;6172;42.646;23.344;2023-09-12T02:12:09;8.37;;;2.60;;
12218;SDS011;6172;42.646;23.344;2023-09-12T02:14:36;7.70;;;2.60;;
12218;SDS011;6172;42.646;23.344;2023-09-12T02:17:03;5.83;;;2.60;;
12218;SDS011;6172;42.646;23.344;2023-09-12T02:19:31;5.30;;;2.60;;
12218;SDS011;6172;42.646;23.344;2023-09-12T02:21:58;5.70;;;2.40;;
12218;SDS011;6172;42.646;23.344;2023-09-12T02:24:24;6.23;;;2.43;;
12218;SDS011;6172;42.646;23.344;2023-09-12T02:26:51;3.57;;;2.77;;
12218;SDS011;6172;42.646;23.344;2023-09-12T02:29:18;8.83;;;2.93;;
12218;SDS011;6172;42.646;23.344;2023-09-12T02:31:45;8.47;;;2.67;;
12218;SDS011;6172;42.646;23.344;2023-09-12T02:34:12;8.43;;;3.30;;
12218;SDS011;6172;42.646;23.344;2023-09-12T02:36:40;13.63;;;3.87;;
12218;SDS011;6172;42.646;23.344;2023-09-12T02:39:07;12.93;;;3.17;;
12218;SDS011;6172;42.646;23.344;2023-09-12T02:41:34;8.70;;;3.00;;
12218;SDS011;6172;42.646;23.344;2023-09-12T02:44:00;10.73;;;3.57;;
12218;SDS011;6172;42.646;23.344;2023-09-12T02:46:27;8.03;;;3.47;;
12218;SDS011;6172;42.646;23.344;2023-09-12T02:48:54;6.00;;;2.90;;
12218;SDS011;6172;42.646;23.344;2023-09-12T02:51:21;10.70;;;3.40;;
12218;SDS011;6172;42.646;23.344;2023-09-12T02:53:51;8.67;;;3.00;;
12218;SDS011;6172;42.646;23.344;2023-09-12T02:56:18;6.37;;;2.90;;
12218;SDS011;6172;42.646;23.344;2023-09-12T02:58:45;8.43;;;3.30;;
12218;SDS011;6172;42.646;23.344;2023-09-12T03:01:14;9.80;;;2.83;;
12218;SDS011;6172;42.646;23.344;2023-09-12T03:03:41;8.93;;;2.93;;
12218;SDS011;6172;42.646;23.344;2023-09-12T03:06:11;9.90;;;2.73;;
12218;SDS011;6172;42.646;23.344;2023-09-12T03:08:39;8.57;;;3.30;;
12218;SDS011;6172;42.646;23.344;2023-09-12T03:11:07;6.60;;;2.83;;
12218;SDS011;6172;42.646;23.344;2023-09-12T03:13:35;10.07;;;3.20;;
12218;SDS011;6172;42.646;23.344;2023-09-12T03:16:02;7.97;;;3.10;;
12218;SDS011;6172;42.646;23.344;2023-09-12T03:18:30;6.70;;;3.17;;
12218;SDS011;6172;42.646;23.344;2023-09-12T03:21:00;10.40;;;3.70;;
12218;SDS011;6172;42.646;23.344;2023-09-12T03:23:32;8.13;;;2.90;;
12218;SDS011;6172;42.646;23.344;2023-09-12T03:26:00;10.23;;;3.20;;
12218;SDS011;6172;42.646;23.344;2023-09-12T03:28:29;4.60;;;2.73;;
12218;SDS011;6172;42.646;23.344;2023-09-12T03:31:03;8.43;;;2.90;;
12218;SDS011;6172;42.646;23.344;2023-09-12T03:33:30;11.83;;;4.00;;
12218;SDS011;6172;42.646;23.344;2023-09-12T03:35:57;8.80;;;4.67;;
12218;SDS011;6172;42.646;23.344;2023-09-12T03:38:24;12.03;;;4.40;;
12218;SDS011;6172;42.646;23.344;2023-09-12T03:40:50;14.30;;;4.40;;
12218;SDS011;6172;42.646;23.344;2023-09-12T03:43:18;12.67;;;4.80;;
12218;SDS011;6172;42.646;23.344;2023-09-12T03:45:46;9.80;;;4.03;;
12218;SDS011;6172;42.646;23.344;2023-09-12T03:48:14;7.80;;;3.53;;
12218;SDS011;6172;42.646;23.344;2023-09-12T03:50:40;15.53;;;6.20;;
12218;SDS011;6172;42.646;23.344;2023-09-12T03:53:07;11.23;;;5.77;;
12218;SDS011;6172;42.646;23.344;2023-09-12T03:55:34;11.60;;;5.27;;
12218;SDS011;6172;42.646;23.344;2023-09-12T03:58:01;14.60;;;6.90;;
12218;SDS011;6172;42.646;23.344;2023-09-12T04:00:28;9.40;;;5.23;;
12218;SDS011;6172;42.646;23.344;2023-09-12T04:02:57;10.50;;;4.70;;
12218;SDS011;6172;42.646;23.344;2023-09-12T04:05:24;10.70;;;5.63;;
12218;SDS011;6172;42.646;23.344;2023-09-12T04:07:51;13.77;;;5.13;;
12218;SDS011;6172;42.646;23.344;2023-09-12T04:10:19;13.77;;;4.70;;
12218;SDS011;6172;42.646;23.344;2023-09-12T04:12:46;11.37;;;4.67;;
12218;SDS011;6172;42.646;23.344;2023-09-12T04:15:13;10.57;;;4.77;;
12218;SDS011;6172;42.646;23.344;2023-09-12T04:17:40;9.23;;;4.80;;
12218;SDS011;6172;42.646;23.344;2023-09-12T04:20:08;11.47;;;4.33;;
12218;SDS011;6172;42.646;23.344;2023-09-12T04:22:38;13.37;;;5.43;;
12218;SDS011;6172;42.646;23.344;2023-09-12T04:25:06;6.63;;;3.40;;
12218;SDS011;6172;42.646;23.344;2023-09-12T04:27:32;6.90;;;3.33;;
12218;SDS011;6172;42.646;23.344;2023-09-12T04:30:00;9.63;;;3.50;;
12218;SDS011;6172;42.646;23.344;2023-09-12T04:32:27;7.57;;;2.63;;
12218;SDS011;6172;42.646;23.344;2023-09-12T04:34:54;7.80;;;3.27;;
12218;SDS011;6172;42.646;23.344;2023-09-12T04:37:23;10.53;;;3.70;;
12218;SDS011;6172;42.646;23.344;2023-09-12T04:39:50;10.43;;;3.37;;
12218;SDS011;6172;42.646;23.344;2023-09-12T04:42:17;8.77;;;3.33;;
12218;SDS011;6172;42.646;23.344;2023-09-12T04:44:44;7.77;;;3.17;;
12218;SDS011;6172;42.646;23.344;2023-09-12T04:47:11;5.80;;;3.47;;
12218;SDS011;6172;42.646;23.344;2023-09-12T04:49:38;12.10;;;3.90;;
12218;SDS011;6172;42.646;23.344;2023-09-12T04:52:05;8.87;;;3.50;;
12218;SDS011;6172;42.646;23.344;2023-09-12T04:54:33;6.07;;;2.77;;
12218;SDS011;6172;42.646;23.344;2023-09-12T04:57:01;8.53;;;5.20;;
12218;SDS011;6172;42.646;23.344;2023-09-12T04:59:30;10.00;;;4.90;;
12218;SDS011;6172;42.646;23.344;2023-09-12T05:01:57;8.47;;;3.70;;
12218;SDS011;6172;42.646;23.344;2023-09-12T05:04:24;10.57;;;4.77;;
12218;SDS011;6172;42.646;23.344;2023-09-12T05:06:50;8.67;;;4.17;;
12218;SDS011;6172;42.646;23.344;2023-09-12T05:09:18;12.43;;;4.30;;
12218;SDS011;6172;42.646;23.344;2023-09-12T05:11:46;9.83;;;3.63;;
12218;SDS011;6172;42.646;23.344;2023-09-12T05:14:13;8.23;;;3.80;;
12218;SDS011;6172;42.646;23.344;2023-09-12T05:16:40;13.10;;;4.17;;
12218;SDS011;6172;42.646;23.344;2023-09-12T05:19:07;9.83;;;3.70;;
12218;SDS011;6172;42.646;23.344;2023-09-12T05:21:34;16.10;;;4.90;;
12218;SDS011;6172;42.646;23.344;2023-09-12T05:24:01;7.73;;;4.13;;
12218;SDS011;6172;42.646;23.344;2023-09-12T05:26:27;10.07;;;4.47;;
12218;SDS011;6172;42.646;23.344;2023-09-12T05:28:56;12.00;;;4.03;;
12218;SDS011;6172;42.646;23.344;2023-09-12T05:31:23;14.27;;;4.35;;
12218;SDS011;6172;42.646;23.344;2023-09-12T05:33:50;13.85;;;3.90;;
12218;SDS011;6172;42.646;23.344;2023-09-12T05:36:17;10.35;;;4.68;;
12218;SDS011;6172;42.646;23.344;2023-09-12T05:38:44;8.95;;;3.78;;
12218;SDS011;6172;42.646;23.344;2023-09-12T05:41:12;11.35;;;4.50;;
12218;SDS011;6172;42.646;23.344;2023-09-12T05:43:44;6.90;;;4.20;;
12218;SDS011;6172;42.646;23.344;2023-09-12T05:46:15;13.15;;;5.35;;
12218;SDS011;6172;42.646;23.344;2023-09-12T05:48:45;10.68;;;4.78;;
12218;SDS011;6172;42.646;23.344;2023-09-12T05:51:13;8.20;;;3.72;;
12218;SDS011;6172;42.646;23.344;2023-09-12T05:53:40;8.32;;;4.10;;
12218;SDS011;6172;42.646;23.344;2023-09-12T05:56:26;10.07;;;4.35;;
12218;SDS011;6172;42.646;23.344;2023-09-12T05:59:19;7.28;;;4.10;;
12218;SDS011;6172;42.646;23.344;2023-09-12T06:01:47;12.85;;;4.82;;
12218;SDS011;6172;42.646;23.344;2023-09-12T06:04:17;11.25;;;3.90;;
12218;SDS011;6172;42.646;23.344;2023-09-12T06:06:45;9.75;;;4.47;;
12218;SDS011;6172;42.646;23.344;2023-09-12T06:09:13;7.22;;;4.50;;
12218;SDS011;6172;42.646;23.344;2023-09-12T06:11:40;4.78;;;3.55;;
12218;SDS011;6172;42.646;23.344;2023-09-12T06:14:06;6.85;;;4.50;;
12218;SDS011;6172;42.646;23.344;2023-09-12T06:16:34;10.65;;;4.10;;
12218;SDS011;6172;42.646;23.344;2023-09-12T06:19:02;9.55;;;4.95;;
12218;SDS011;6172;42.646;23.344;2023-09-12T06:21:29;12.90;;;4.90;;
12218;SDS011;6172;42.646;23.344;2023-09-12T06:24:09;8.43;;;4.30;;
12218;SDS011;6172;42.646;23.344;2023-09-12T06:26:37;13.38;;;4.57;;
12218;SDS011;6172;42.646;23.344;2023-09-12T06:29:05;8.60;;;3.75;;
12218;SDS011;6172;42.646;23.344;2023-09-12T06:31:31;8.65;;;3.70;;
12218;SDS011;6172;42.646;23.344;2023-09-12T06:33:58;6.82;;;2.88;;
12218;SDS011;6172;42.646;23.344;2023-09-12T06:36:26;6.05;;;3.13;;
12218;SDS011;6172;42.646;23.344;2023-09-12T06:38:54;13.25;;;3.50;;
12218;SDS011;6172;42.646;23.344;2023-09-12T06:41:21;6.25;;;3.60;;
12218;SDS011;6172;42.646;23.344;2023-09-12T06:43:48;9.30;;;3.45;;
12218;SDS011;6172;42.646;23.344;2023-09-12T06:46:15;5.50;;;3.75;;
12218;SDS011;6172;42.646;23.344;2023-09-12T06:48:42;5.18;;;3.35;;
12218;SDS011;6172;42.646;23.344;2023-09-12T06:51:12;5.95;;;2.58;;
12218;SDS011;6172;42.646;23.344;2023-09-12T06:53:40;8.15;;;3.33;;
12218;SDS011;6172;42.646;23.344;2023-09-12T06:56:08;6.35;;;2.95;;
12218;SDS011;6172;42.646;23.344;2023-09-12T06:58:35;6.05;;;3.30;;
12218;SDS011;6172;42.646;23.344;2023-09-12T07:01:02;10.20;;;3.50;;
12218;SDS011;6172;42.646;23.344;2023-09-12T07:03:29;7.47;;;3.25;;
12218;SDS011;6172;42.646;23.344;2023-09-12T07:05:56;8.30;;;3.38;;
12218;SDS011;6172;42.646;23.344;2023-09-12T07:08:23;4.72;;;3.20;;
12218;SDS011;6172;42.646;23.344;2023-09-12T07:10:52;6.65;;;3.75;;
12218;SDS011;6172;42.646;23.344;2023-09-12T07:13:20;6.32;;;3.17;;
12218;SDS011;6172;42.646;23.344;2023-09-12T07:15:47;6.82;;;2.72;;
12218;SDS011;6172;42.646;23.344;2023-09-12T07:18:15;7.45;;;3.22;;
12218;SDS011;6172;42.646;23.344;2023-09-12T07:20:42;7.00;;;2.95;;
12218;SDS011;6172;42.646;23.344;2023-09-12T07:23:10;7.35;;;2.90;;
12218;SDS011;6172;42.646;23.344;2023-09-12T07:25:37;4.82;;;2.67;;
12218;SDS011;6172;42.646;23.344;2023-09-12T07:28:07;4.82;;;2.72;;
12218;SDS011;6172;42.646;23.344;2023-09-12T07:30:34;5.40;;;2.75;;
12218;SDS011;6172;42.646;23.344;2023-09-12T07:33:02;6.63;;;2.88;;
12218;SDS011;6172;42.646;23.344;2023-09-12T07:35:29;6.93;;;2.92;;
12218;SDS011;6172;42.646;23.344;2023-09-12T07:37:55;6.32;;;3.10;;
12218;SDS011;6172;42.646;23.344;2023-09-12T07:40:22;4.88;;;2.88;;
12218;SDS011;6172;42.646;23.344;2023-09-12T07:42:49;4.78;;;2.65;;
12218;SDS011;6172;42.646;23.344;2023-09-12T07:45:18;8.63;;;3.05;;
12218;SDS011;6172;42.646;23.344;2023-09-12T07:47:47;8.73;;;3.13;;
12218;SDS011;6172;42.646;23.344;2023-09-12T07:50:15;3.85;;;2.58;;
12218;SDS011;6172;42.646;23.344;2023-09-12T07:52:42;3.95;;;2.70;;
12218;SDS011;6172;42.646;23.344;2023-09-12T07:55:09;7.38;;;3.28;;
12218;SDS011;6172;42.646;23.344;2023-09-12T07:57:39;8.15;;;3.85;;
12218;SDS011;6172;42.646;23.344;2023-09-12T08:00:07;7.88;;;3.58;;
12218;SDS011;6172;42.646;23.344;2023-09-12T08:02:37;6.03;;;3.17;;
12218;SDS011;6172;42.646;23.344;2023-09-12T08:05:04;6.72;;;3.70;;
12218;SDS011;6172;42.646;23.344;2023-09-12T08:07:33;4.07;;;2.58;;
12218;SDS011;6172;42.646;23.344;2023-09-12T08:10:01;6.50;;;2.50;;
12218;SDS011;6172;42.646;23.344;2023-09-12T08:12:42;8.57;;;3.35;;
12218;SDS011;6172;42.646;23.344;2023-09-12T08:15:27;7.80;;;2.85;;
12218;SDS011;6172;42.646;23.344;2023-09-12T08:17:55;8.98;;;3.17;;
12218;SDS011;6172;42.646;23.344;2023-09-12T08:20:22;3.78;;;2.53;;
12218;SDS011;6172;42.646;23.344;2023-09-12T08:22:50;4.60;;;2.83;;
12218;SDS011;6172;42.646;23.344;2023-09-12T08:25:16;4.72;;;2.60;;
12218;SDS011;6172;42.646;23.344;2023-09-12T08:27:43;3.67;;;2.53;;
12218;SDS011;6172;42.646;23.344;2023-09-12T08:30:10;4.90;;;2.53;;
12218;SDS011;6172;42.646;23.344;2023-09-12T08:32:38;6.15;;;2.60;;
12218;SDS011;6172;42.646;23.344;2023-09-12T08:35:10;4.47;;;2.45;;
12218;SDS011;6172;42.646;23.344;2023-09-12T08:37:38;4.13;;;2.35;;
12218;SDS011;6172;42.646;23.344;2023-09-12T08:40:06;4.05;;;2.50;;
12218;SDS011;6172;42.646;23.344;2023-09-12T08:42:37;4.05;;;2.60;;
12218;SDS011;6172;42.646;23.344;2023-09-12T08:45:08;5.00;;;2.67;;
12218;SDS011;6172;42.646;23.344;2023-09-12T08:47:39;4.57;;;2.85;;
12218;SDS011;6172;42.646;23.344;2023-09-12T08:50:18;5.57;;;2.70;;
12218;SDS011;6172;42.646;23.344;2023-09-12T08:52:50;3.75;;;2.42;;
12218;SDS011;6172;42.646;23.344;2023-09-12T08:55:19;6.82;;;2.90;;
12218;SDS011;6172;42.646;23.344;2023-09-12T08:57:58;6.50;;;3.03;;
12218;SDS011;6172;42.646;23.344;2023-09-12T09:00:26;10.35;;;3.40;;
12218;SDS011;6172;42.646;23.344;2023-09-12T09:02:56;4.97;;;2.65;;
12218;SDS011;6172;42.646;23.344;2023-09-12T09:05:35;4.78;;;2.80;;
12218;SDS011;6172;42.646;23.344;2023-09-12T09:08:09;4.28;;;2.53;;
12218;SDS011;6172;42.646;23.344;2023-09-12T09:10:56;3.90;;;2.65;;
12218;SDS011;6172;42.646;23.344;2023-09-12T09:13:31;7.97;;;3.13;;
12218;SDS011;6172;42.646;23.344;2023-09-12T09:16:15;3.05;;;2.00;;
12218;SDS011;6172;42.646;23.344;2023-09-12T09:18:50;3.35;;;2.60;;
12218;SDS011;6172;42.646;23.344;2023-09-12T09:21:26;5.22;;;2.20;;
12218;SDS011;6172;42.646;23.344;2023-09-12T09:23:57;4.93;;;2.60;;
12218;SDS011;6172;42.646;23.344;2023-09-12T09:26:25;7.97;;;2.30;;
12218;SDS011;6172;42.646;23.344;2023-09-12T09:29:06;2.70;;;2.03;;
12218;SDS011;6172;42.646;23.344;2023-09-12T09:31:49;3.22;;;1.95;;
12218;SDS011;6172;42.646;23.344;2023-09-12T09:34:17;3.08;;;2.33;;
12218;SDS011;6172;42.646;23.344;2023-09-12T09:39:31;2.85;;;2.33;;
12218;SDS011;6172;42.646;23.344;2023-09-12T09:42:09;4.78;;;2.45;;
12218;SDS011;6172;42.646;23.344;2023-09-12T09:44:41;3.35;;;2.42;;
12218;SDS011;6172;42.646;23.344;2023-09-12T09:47:19;3.70;;;2.20;;
12218;SDS011;6172;42.646;23.344;2023-09-12T09:49:46;3.30;;;2.00;;
12218;SDS011;6172;42.646;23.344;2023-09-12T09:52:19;4.70;;;1.80;;
12218;SDS011;6172;42.646;23.344;2023-09-12T09:54:53;14.57;;;2.40;;
12218;SDS011;6172;42.646;23.344;2023-09-12T09:57:25;4.45;;;2.67;;
12218;SDS011;6172;42.646;23.344;2023-09-12T10:00:11;4.68;;;2.15;;
12218;SDS011;6172;42.646;23.344;2023-09-12T10:02:41;3.88;;;2.22;;
12218;SDS011;6172;42.646;23.344;2023-09-12T10:05:18;4.70;;;2.05;;
12218;SDS011;6172;42.646;23.344;2023-09-12T10:07:50;5.60;;;2.03;;
12218;SDS011;6172;42.646;23.344;2023-09-12T10:10:21;5.18;;;2.55;;
12218;SDS011;6172;42.646;23.344;2023-09-12T10:12:55;3.65;;;2.58;;
12218;SDS011;6172;42.646;23.344;2023-09-12T10:15:30;5.85;;;2.17;;
12218;SDS011;6172;42.646;23.344;2023-09-12T10:18:00;5.30;;;2.55;;
12218;SDS011;6172;42.646;23.344;2023-09-12T10:20:48;5.55;;;1.95;;
12218;SDS011;6172;42.646;23.344;2023-09-12T10:23:23;3.40;;;1.92;;
12218;SDS011;6172;42.646;23.344;2023-09-12T10:26:02;3.88;;;2.05;;
12218;SDS011;6172;42.646;23.344;2023-09-12T10:28:46;6.82;;;2.55;;
12218;SDS011;6172;42.646;23.344;2023-09-12T10:31:20;8.68;;;1.83;;
12218;SDS011;6172;42.646;23.344;2023-09-12T10:33:50;3.72;;;1.70;;
12218;SDS011;6172;42.646;23.344;2023-09-12T10:36:18;3.22;;;1.95;;
12218;SDS011;6172;42.646;23.344;2023-09-12T10:38:48;6.60;;;2.10;;
12218;SDS011;6172;42.646;23.344;2023-09-12T10:41:15;3.22;;;2.00;;
12218;SDS011;6172;42.646;23.344;2023-09-12T10:43:44;2.10;;;1.80;;
12218;SDS011;6172;42.646;23.344;2023-09-12T10:46:17;3.20;;;1.83;;
12218;SDS011;6172;42.646;23.344;2023-09-12T10:48:44;6.20;;;2.75;;
12218;SDS011;6172;42.646;23.344;2023-09-12T10:51:11;5.10;;;2.00;;
12218;SDS011;6172;42.646;23.344;2023-09-12T10:53:44;4.97;;;1.98;;
12218;SDS011;6172;42.646;23.344;2023-09-12T10:56:16;3.95;;;1.90;;
12218;SDS011;6172;42.646;23.344;2023-09-12T11:01:37;8.07;;;2.35;;
12218;SDS011;6172;42.646;23.344;2023-09-12T11:10:15;8.68;;;2.28;;
12218;SDS011;6172;42.646;23.344;2023-09-12T11:12:48;5.05;;;2.03;;
12218;SDS011;6172;42.646;23.344;2023-09-12T11:15:16;4.00;;;1.73;;
12218;SDS011;6172;42.646;23.344;2023-09-12T11:17:44;1.85;;;1.40;;
12218;SDS011;6172;42.646;23.344;2023-09-12T11:20:11;4.30;;;2.13;;
12218;SDS011;6172;42.646;23.344;2023-09-12T11:22:40;2.05;;;1.70;;
12218;SDS011;6172;42.646;23.344;2023-09-12T11:25:18;4.15;;;1.50;;
12218;SDS011;6172;42.646;23.344;2023-09-12T11:28:03;5.95;;;1.70;;
12218;SDS011;6172;42.646;23.344;2023-09-12T11:30:30;2.88;;;2.00;;
12218;SDS011;6172;42.646;23.344;2023-09-12T11:32:59;5.97;;;2.15;;
12218;SDS011;6172;42.646;23.344;2023-09-12T11:35:30;2.90;;;1.90;;
12218;SDS011;6172;42.646;23.344;2023-09-12T11:38:02;2.22;;;1.70;;
12218;SDS011;6172;42.646;23.344;2023-09-12T11:40:41;5.07;;;1.70;;
12218;SDS011;6172;42.646;23.344;2023-09-12T11:43:19;4.95;;;1.70;;
12218;SDS011;6172;42.646;23.344;2023-09-12T11:45:47;4.28;;;1.85;;
12218;SDS011;6172;42.646;23.344;2023-09-12T11:48:14;3.65;;;1.60;;
12218;SDS011;6172;42.646;23.344;2023-09-12T11:50:41;4.47;;;1.75;;
12218;SDS011;6172;42.646;23.344;2023-09-12T11:53:08;5.22;;;2.42;;
12218;SDS011;6172;42.646;23.344;2023-09-12T11:55:36;4.43;;;1.77;;
12218;SDS011;6172;42.646;23.344;2023-09-12T11:58:08;5.15;;;1.77;;
12218;SDS011;6172;42.646;23.344;2023-09-12T12:00:37;2.13;;;1.80;;
12218;SDS011;6172;42.646;23.344;2023-09-12T12:03:11;6.63;;;2.08;;
12218;SDS011;6172;42.646;23.344;2023-09-12T12:05:39;4.57;;;2.60;;
12218;SDS011;6172;42.646;23.344;2023-09-12T12:08:06;5.68;;;2.33;;
12218;SDS011;6172;42.646;23.344;2023-09-12T12:10:34;2.53;;;1.77;;
12218;SDS011;6172;42.646;23.344;2023-09-12T12:13:16;2.50;;;1.77;;
12218;SDS011;6172;42.646;23.344;2023-09-12T12:15:44;4.50;;;1.88;;
12218;SDS011;6172;42.646;23.344;2023-09-12T12:18:11;4.68;;;1.50;;
12218;SDS011;6172;42.646;23.344;2023-09-12T12:20:38;3.50;;;1.83;;
12218;SDS011;6172;42.646;23.344;2023-09-12T12:23:05;5.45;;;2.03;;
12218;SDS011;6172;42.646;23.344;2023-09-12T12:25:32;3.92;;;2.00;;
12218;SDS011;6172;42.646;23.344;2023-09-12T12:30:30;9.48;;;2.35;;
12218;SDS011;6172;42.646;23.344;2023-09-12T12:33:13;6.93;;;2.47;;
12218;SDS011;6172;42.646;23.344;2023-09-12T12:35:40;4.32;;;2.42;;
12218;SDS011;6172;42.646;23.344;2023-09-12T12:38:06;6.00;;;2.08;;
12218;SDS011;6172;42.646;23.344;2023-09-12T12:40:37;6.22;;;2.40;;
12218;SDS011;6172;42.646;23.344;2023-09-12T12:43:05;7.82;;;2.20;;
12218;SDS011;6172;42.646;23.344;2023-09-12T12:45:33;6.60;;;2.17;;
12218;SDS011;6172;42.646;23.344;2023-09-12T12:55:02;9.00;;;2.75;;
12218;SDS011;6172;42.646;23.344;2023-09-12T12:57:31;6.05;;;2.30;;
12218;SDS011;6172;42.646;23.344;2023-09-12T12:59:59;5.55;;;2.22;;
12218;SDS011;6172;42.646;23.344;2023-09-12T13:02:28;3.60;;;2.03;;
12218;SDS011;6172;42.646;23.344;2023-09-12T13:04:55;3.15;;;2.13;;
12218;SDS011;6172;42.646;23.344;2023-09-12T13:07:21;3.63;;;2.05;;
12218;SDS011;6172;42.646;23.344;2023-09-12T13:09:49;5.05;;;2.25;;
12218;SDS011;6172;42.646;23.344;2023-09-12T13:12:17;2.38;;;2.17;;
12218;SDS011;6172;42.646;23.344;2023-09-12T13:14:44;7.28;;;2.03;;
12218;SDS011;6172;42.646;23.344;2023-09-12T13:17:11;5.20;;;2.50;;
12218;SDS011;6172;42.646;23.344;2023-09-12T13:19:38;4.75;;;2.30;;
12218;SDS011;6172;42.646;23.344;2023-09-12T13:22:05;3.60;;;1.95;;
12218;SDS011;6172;42.646;23.344;2023-09-12T13:24:32;3.45;;;1.95;;
12218;SDS011;6172;42.646;23.344;2023-09-12T13:26:59;3.30;;;1.98;;
12218;SDS011;6172;42.646;23.344;2023-09-12T13:29:27;2.47;;;1.65;;
12218;SDS011;6172;42.646;23.344;2023-09-12T13:31:54;4.53;;;2.13;;
12218;SDS011;6172;42.646;23.344;2023-09-12T13:34:20;6.18;;;1.90;;
12218;SDS011;6172;42.646;23.344;2023-09-12T13:36:48;11.73;;;3.72;;
12218;SDS011;6172;42.646;23.344;2023-09-12T13:39:15;5.95;;;2.75;;
12218;SDS011;6172;42.646;23.344;2023-09-12T13:41:42;4.85;;;2.55;;
12218;SDS011;6172;42.646;23.344;2023-09-12T13:44:10;5.90;;;2.92;;
12218;SDS011;6172;42.646;23.344;2023-09-12T13:46:38;5.00;;;2.35;;
12218;SDS011;6172;42.646;23.344;2023-09-12T13:49:05;4.90;;;2.35;;
12218;SDS011;6172;42.646;23.344;2023-09-12T13:51:33;5.97;;;2.50;;
12218;SDS011;6172;42.646;23.344;2023-09-12T13:54:01;6.07;;;2.20;;
12218;SDS011;6172;42.646;23.344;2023-09-12T13:56:28;5.93;;;2.20;;
12218;SDS011;6172;42.646;23.344;2023-09-12T13:58:56;4.63;;;2.10;;
12218;SDS011;6172;42.646;23.344;2023-09-12T14:01:23;4.82;;;2.05;;
12218;SDS011;6172;42.646;23.344;2023-09-12T14:03:52;4.65;;;2.03;;
12218;SDS011;6172;42.646;23.344;2023-09-12T14:06:18;5.13;;;2.13;;
12218;SDS011;6172;42.646;23.344;2023-09-12T14:08:45;4.53;;;2.20;;
12218;SDS011;6172;42.646;23.344;2023-09-12T14:11:12;4.00;;;2.40;;
12218;SDS011;6172;42.646;23.344;2023-09-12T14:13:38;7.50;;;2.40;;
12218;SDS011;6172;42.646;23.344;2023-09-12T14:16:05;4.45;;;2.53;;
12218;SDS011;6172;42.646;23.344;2023-09-12T14:18:32;4.55;;;2.65;;
12218;SDS011;6172;42.646;23.344;2023-09-12T14:21:02;4.80;;;2.38;;
12218;SDS011;6172;42.646;23.344;2023-09-12T14:23:29;5.40;;;2.20;;
12218;SDS011;6172;42.646;23.344;2023-09-12T14:25:56;4.22;;;2.13;;
12218;SDS011;6172;42.646;23.344;2023-09-12T14:28:22;5.80;;;2.45;;
12218;SDS011;6172;42.646;23.344;2023-09-12T14:30:49;4.30;;;2.35;;
12218;SDS011;6172;42.646;23.344;2023-09-12T14:33:17;4.05;;;2.22;;
12218;SDS011;6172;42.646;23.344;2023-09-12T14:35:44;6.55;;;2.75;;
12218;SDS011;6172;42.646;23.344;2023-09-12T14:38:13;12.05;;;2.92;;
12218;SDS011;6172;42.646;23.344;2023-09-12T14:40:40;5.90;;;1.88;;
12218;SDS011;6172;42.646;23.344;2023-09-12T14:43:06;5.22;;;2.08;;
12218;SDS011;6172;42.646;23.344;2023-09-12T14:45:39;3.40;;;2.25;;
12218;SDS011;6172;42.646;23.344;2023-09-12T14:48:06;6.95;;;1.75;;
12218;SDS011;6172;42.646;23.344;2023-09-12T14:50:33;2.50;;;1.80;;
12218;SDS011;6172;42.646;23.344;2023-09-12T14:53:00;3.53;;;2.00;;
12218;SDS011;6172;42.646;23.344;2023-09-12T14:55:28;7.47;;;3.00;;
12218;SDS011;6172;42.646;23.344;2023-09-12T14:57:55;11.57;;;2.83;;
12218;SDS011;6172;42.646;23.344;2023-09-12T15:00:23;4.70;;;2.10;;
12218;SDS011;6172;42.646;23.344;2023-09-12T15:02:50;5.63;;;2.28;;
12218;SDS011;6172;42.646;23.344;2023-09-12T15:05:17;5.25;;;2.30;;
12218;SDS011;6172;42.646;23.344;2023-09-12T15:07:44;10.60;;;2.83;;
12218;SDS011;6172;42.646;23.344;2023-09-12T15:10:11;17.85;;;3.08;;
12218;SDS011;6172;42.646;23.344;2023-09-12T15:12:40;16.27;;;4.18;;
12218;SDS011;6172;42.646;23.344;2023-09-12T15:15:07;13.82;;;4.03;;
12218;SDS011;6172;42.646;23.344;2023-09-12T15:17:35;11.43;;;3.38;;
12218;SDS011;6172;42.646;23.344;2023-09-12T15:20:02;7.15;;;2.67;;